Latest Weather Observations for Narrandera Airport

IDN60801

Issued at 10:05 am EDT Thursday 27 November 2014 (issued every 30 minutes, with the page automatically refreshed every 10 minutes)

About weather observations | Map of weather stations | Latest weather observations for NSW | Other Formats
Station Details ID: 074148 Name: NARRANDERA AIRPORT AWS Lat: -34.70 Lon: 146.51 Height: 145.0 m
Data from the previous 72 hours. | See also: Recent months for locations in New South Wales
Date/Time
EDT
Temp
°C
App
Temp
°C
Dew
Point
Rel
Hum
%
Delta-T
°C
Wind Press
QNH
hPa
Press
MSL
hPa
Rain
since 9 am
mm
Dir
 
Spd
km/h
Gust
km/h
Spd
kts
Gust
kts
27/10:00am 21.7 20.8 10.5 49 6.1 SE 6 9 3 5 1021.3 1020.8 0.0
27/09:30am 20.0 19.3 9.9 52 5.4 SSE 4 11 2 6 1021.4 1020.9 0.0
27/09:00am 18.7 17.3 9.5 55 4.9 S 7 13 4 7 1021.5 1021.0 0.0
27/08:30am 17.6 15.8 9.5 59 4.3 SSW 9 15 5 8 1021.5 1021.0 0.0
27/08:00am 16.1 13.9 9.5 65 3.4 SSW 11 15 6 8 1021.4 1020.9 0.0
27/07:30am 14.8 12.1 9.0 68 3.0 SSW 13 15 7 8 1021.2 1020.7 0.0
27/07:00am 13.7 12.2 9.0 73 2.4 S 7 11 4 6 1021.0 1020.5 0.0
27/06:30am 13.0 11.2 9.3 78 1.9 SSW 9 11 5 6 1020.7 1020.2 0.0
27/06:00am 12.6 10.7 9.2 80 1.7 SW 9 13 5 7 1020.4 1019.9 0.0
27/05:30am 12.6 9.9 9.1 79 1.8 SSW 13 15 7 8 1019.9 1019.3 0.0
27/05:00am 13.1 10.8 9.0 76 2.1 SSW 11 13 6 7 1019.7 1019.1 0.0
27/04:30am 13.5 11.2 9.0 74 2.3 SSW 11 15 6 8 1019.3 1018.8 0.0
27/04:00am 13.9 11.5 8.7 71 2.6 SSW 11 17 6 9 1019.1 1018.6 0.0
27/03:30am 14.6 11.5 8.8 68 3.0 SSW 15 22 8 12 1018.9 1018.4 0.0
27/03:00am 14.9 12.1 8.6 66 3.2 SSW 13 17 7 9 1018.8 1018.3 0.0
27/02:30am 15.4 12.2 8.4 63 3.6 SSW 15 19 8 10 1019.1 1018.6 0.0
27/02:00am 15.9 13.0 8.2 60 3.9 SSW 13 19 7 10 1019.3 1018.8 0.0
27/01:30am 16.6 12.9 8.1 57 4.3 SSW 17 24 9 13 1019.4 1018.9 0.0
27/01:00am 17.1 13.4 8.0 55 4.6 SW 17 22 9 12 1019.8 1019.2 0.0
27/12:30am 17.8 14.4 7.8 52 5.1 SSW 15 20 8 11 1019.9 1019.3 0.0
27/12:00am 18.3 14.6 8.0 51 5.3 SSW 17 20 9 11 1020.0 1019.5 0.0
 
Date/Time
EDT
Temp
°C
App
Temp
°C
Dew
Point
Rel
Hum
%
Delta-T
°C
Wind Press
QNH
hPa
Press
MSL
hPa
Rain
since 9 am
mm
Dir
 
Spd
km/h
Gust
km/h
Spd
kts
Gust
kts
26/11:30pm 19.2 15.4 7.6 47 6.0 S 17 24 9 13 1019.9 1019.3 0.0
26/11:00pm 19.8 15.4 7.5 45 6.3 S 20 28 11 15 1019.8 1019.2 0.0
26/10:30pm 20.5 16.2 7.2 42 6.8 S 19 26 10 14 1019.7 1019.1 0.0
26/10:00pm 19.8 17.0 5.1 38 7.2 SW 9 15 5 8 1019.2 1018.7 0.0
26/09:30pm 19.6 17.1 4.5 37 7.3 SW 7 9 4 5 1018.9 1018.4 0.0
26/09:00pm 21.5 18.3 3.2 30 8.8 SW 9 11 5 6 1018.6 1018.1 0.0
26/08:30pm 22.1 18.1 2.8 28 9.2 SSW 13 19 7 10 1018.5 1018.0 0.0
26/08:00pm 23.2 18.0 2.7 26 9.8 SSW 19 26 10 14 1018.2 1017.7 0.0
26/07:30pm 24.4 19.1 3.1 25 10.4 SSW 20 28 11 15 1018.0 1017.5 0.0
26/07:00pm 25.3 20.1 3.3 24 10.8 SSW 20 32 11 17 1017.8 1017.3 0.0
26/06:30pm 25.9 20.9 3.8 24 11.0 SW 19 32 10 17 1017.3 1016.8 0.0
26/06:00pm 26.4 21.4 3.6 23 11.4 SW 19 33 10 18 1017.0 1016.5 0.0
26/05:30pm 27.1 22.6 4.2 23 11.6 SW 17 28 9 15 1017.0 1016.5 0.0
26/05:00pm 26.8 21.7 4.0 23 11.5 SSW 20 35 11 19 1017.0 1016.5 0.0
26/04:30pm 26.7 20.3 3.2 22 11.7 SSW 26 33 14 18 1017.3 1016.8 0.0
26/04:00pm 27.1 22.9 3.6 22 11.8 WSW 15 24 8 13 1017.4 1016.9 0.0
26/03:30pm 26.9 21.9 3.4 22 11.7 SSW 19 28 10 15 1017.7 1017.2 0.0
26/03:00pm 26.8 19.1 3.3 22 11.7 SSW 33 41 18 22 1018.0 1017.5 0.0
26/02:30pm 26.7 20.6 2.6 21 11.9 S 24 33 13 18 1018.1 1017.6 0.0
26/02:00pm 26.3 21.0 2.9 22 11.5 SW 20 37 11 20 1018.5 1018.0 0.0
26/01:30pm 26.1 20.7 2.7 22 11.5 WSW 20 35 11 19 1018.7 1018.2 0.0
26/01:00pm 25.5 20.1 2.2 22 11.3 SW 20 33 11 18 1019.1 1018.6 0.0
26/12:30pm 25.1 19.7 2.5 23 11.0 W 20 30 11 16 1019.3 1018.8 0.0
26/12:00pm 25.4 20.4 3.4 24 10.9 SW 19 32 10 17 1019.7 1019.1 0.0
26/11:30am 24.2 19.2 3.5 26 10.2 WSW 19 30 10 16 1020.0 1019.5 0.0
26/11:00am 24.1 19.8 3.4 26 10.1 WSW 15 19 8 10 1020.2 1019.7 0.0
26/10:30am 23.4 20.4 3.9 28 9.6 WSW 9 24 5 13 1020.2 1019.7 0.0
26/10:00am 22.5 19.7 3.1 28 9.3 W 7 19 4 10 1020.2 1019.7 0.0
26/09:30am 21.6 19.8 5.5 35 8.1 SW 4 11 2 6 1020.4 1019.9 0.0
26/09:00am 20.4 18.3 6.0 39 7.2 W 6 11 3 6 1020.5 1020.0 0.0
26/08:30am 18.2 16.4 7.3 49 5.5 W 6 9 3 5 1020.4 1019.9 0.0
26/08:00am 15.8 15.0 8.1 60 3.9 WSW 2 6 1 3 1020.3 1019.8 0.0
26/07:30am 13.5 13.1 8.4 71 2.6 CALM 0 0 0 0 1020.1 1019.6 0.0
26/07:00am 11.3 10.9 8.3 82 1.5 CALM 0 0 0 0 1020.0 1019.5 0.0
26/06:30am 9.6 9.0 7.5 87 1.0 CALM 0 0 0 0 1019.9 1019.3 0.0
26/06:00am 8.9 8.3 7.2 89 0.8 CALM 0 0 0 0 1019.7 1019.1 0.0
26/05:30am 9.3 8.7 7.6 89 0.8 CALM 0 0 0 0 1019.2 1018.7 0.0
26/05:00am 9.6 9.1 7.7 88 0.9 CALM 0 0 0 0 1018.9 1018.4 0.0
26/04:30am 9.9 9.4 7.8 87 1.0 CALM 0 0 0 0 1018.6 1018.1 0.0
26/04:00am 9.9 9.4 7.7 86 1.1 CALM 0 0 0 0 1018.5 1018.0 0.0
26/03:30am 10.2 9.7 8.0 86 1.1 CALM 0 0 0 0 1018.5 1018.0 0.0
26/03:00am 10.4 9.9 7.8 84 1.3 CALM 0 0 0 0 1018.5 1018.0 0.0
26/02:30am 10.8 10.2 7.5 80 1.6 CALM 0 0 0 0 1018.7 1018.2 0.0
26/02:00am 10.9 10.3 7.6 80 1.6 CALM 0 0 0 0 1018.9 1018.4 0.0
26/01:30am 11.4 11.0 8.4 82 1.5 CALM 0 0 0 0 1019.2 1018.7 0.0
26/01:00am 11.7 11.2 8.0 78 1.8 CALM 0 0 0 0 1019.7 1019.1 0.0
26/12:30am 12.2 11.8 8.3 77 1.9 CALM 0 0 0 0 1020.1 1019.6 0.0
26/12:00am 12.5 11.9 7.4 71 2.5 CALM 0 0 0 0 1020.3 1019.8 0.0
 
Date/Time
EDT
Temp
°C
App
Temp
°C
Dew
Point
Rel
Hum
%
Delta-T
°C
Wind Press
QNH
hPa
Press
MSL
hPa
Rain
since 9 am
mm
Dir
 
Spd
km/h
Gust
km/h
Spd
kts
Gust
kts
25/11:30pm 13.3 12.8 8.0 70 2.6 CALM 0 0 0 0 1020.3 1019.8 0.0
25/11:00pm 13.6 12.8 6.7 63 3.3 CALM 0 0 0 0 1020.5 1020.0 0.0
25/10:30pm 14.7 14.3 8.2 65 3.3 CALM 0 0 0 0 1020.5 1020.0 0.0
25/10:00pm 15.4 14.7 6.9 57 4.2 CALM 0 0 0 0 1020.4 1019.9 0.0
25/09:30pm 17.3 16.3 5.6 46 5.7 CALM 0 0 0 0 1020.2 1019.7 0.0
25/09:00pm 17.5 15.0 6.4 48 5.5 S 9 11 5 6 1019.9 1019.3 0.0
25/08:30pm 18.6 16.1 4.8 40 6.7 S 7 9 4 5 1019.6 1019.0 0.0
25/08:00pm 20.1 16.7 3.8 34 7.8 S 11 17 6 9 1019.3 1018.8 0.0
25/07:30pm 21.6 17.4 3.8 31 8.6 SSW 15 20 8 11 1019.0 1018.5 0.0
25/07:00pm 22.3 17.2 2.9 28 9.3 SW 19 26 10 14 1018.7 1018.2 0.0
25/06:30pm 22.7 17.6 3.3 28 9.4 SSW 19 28 10 15 1018.4 1017.9 0.0
25/06:00pm 23.2 18.5 3.2 27 9.7 SSW 17 24 9 13 1018.3 1017.8 0.0
25/05:30pm 23.1 18.0 3.1 27 9.7 SSW 19 30 10 16 1018.5 1018.0 0.0
25/05:00pm 23.5 19.2 3.4 27 9.8 SW 15 22 8 12 1018.5 1018.0 0.0
25/04:30pm 23.0 18.3 3.0 27 9.7 W 17 30 9 16 1018.6 1018.1 0.0
25/04:00pm 22.9 18.5 2.9 27 9.6 SW 15 28 8 15 1018.9 1018.4 0.0
25/03:30pm 23.3 18.1 3.3 27 9.7 SW 20 33 11 18 1019.0 1018.5 0.0
25/03:00pm 21.8 17.7 2.5 28 9.1 WSW 13 19 7 10 1019.2 1018.7 0.0
25/02:30pm 22.1 16.9 2.2 27 9.4 SW 19 33 10 18 1019.3 1018.8 0.0
25/02:00pm 20.6 15.2 1.0 27 8.9 SW 19 32 10 17 1019.6 1019.0 0.0
25/01:30pm 21.1 15.6 3.8 32 8.4 SW 22 32 12 17 1019.6 1019.0 0.0
25/01:00pm 20.3 14.6 3.1 32 8.1 SW 22 32 12 17 1019.9 1019.3 0.0
25/12:30pm 19.4 14.0 2.7 33 7.8 SW 20 30 11 16 1020.2 1019.7 0.0
25/12:00pm 18.6 13.4 2.4 34 7.5 SW 19 30 10 16 1020.3 1019.8 0.0
25/11:30am 18.2 13.0 2.5 35 7.2 WSW 19 33 10 18 1020.4 1019.9 0.0
25/11:00am 18.0 12.8 5.6 44 6.1 SSW 22 41 12 22 1020.5 1020.0 0.0
25/10:30am 17.3 11.9 4.6 43 6.1 SSW 22 32 12 17 1020.6 1020.1 0.0
25/10:00am 16.5 10.4 4.9 46 5.5 SSW 26 32 14 17 1020.5 1020.0 0.0
25/09:30am 16.4 10.2 6.2 51 5.0 S 28 35 15 19 1020.2 1019.7 0.0
25/09:00am 16.1 10.2 6.0 51 4.9 SSW 26 32 14 17 1020.0 1019.5 5.4
25/08:30am 15.0 8.6 5.2 52 4.7 SSW 28 43 15 23 1019.8 1019.2 5.4
25/08:00am 14.3 8.5 6.4 59 3.8 SSW 26 35 14 19 1019.3 1018.8 5.4
25/07:30am 13.5 9.2 7.1 65 3.1 SSW 19 26 10 14 1019.0 1018.5 5.4
25/07:00am 12.4 8.3 7.9 74 2.2 SSW 19 28 10 15 1018.4 1017.9 5.4
25/06:30am 11.4 8.4 7.9 79 1.7 SSW 13 15 7 8 1017.9 1017.4 5.4
25/06:00am 11.2 8.2 7.7 79 1.7 SW 13 19 7 10 1017.6 1017.1 5.4
25/05:30am 11.7 8.3 7.6 76 2.0 SW 15 20 8 11 1016.8 1016.3 5.4
25/05:00am 12.3 8.9 7.6 73 2.3 SSW 15 19 8 10 1016.3 1015.8 5.4
25/04:30am 12.9 9.1 7.4 69 2.7 SSW 17 22 9 12 1015.9 1015.4 5.4
25/04:00am 13.2 9.1 7.9 70 2.6 SSW 19 26 10 14 1015.5 1015.0 5.4
25/03:30am 13.9 8.9 7.9 67 3.0 SSW 24 33 13 18 1015.1 1014.6 5.4
25/03:00am 14.4 8.8 8.6 68 2.9 SSW 28 41 15 22 1014.8 1014.3 5.4
25/02:30am 15.4 11.2 11.0 75 2.4 SW 24 37 13 20 1014.3 1013.8 5.4
25/02:00am 16.2 12.9 12.7 80 1.9 SW 22 32 12 17 1014.2 1013.7 5.4
25/01:30am 16.6 13.0 13.1 80 2.0 SW 24 39 13 21 1014.2 1013.7 5.4
25/01:00am 17.7 13.5 13.6 77 2.3 SW 28 39 15 21 1013.9 1013.3 5.4
25/12:30am 18.9 14.7 13.5 71 3.1 SW 28 44 15 24 1013.6 1013.0 5.4
25/12:00am 20.3 18.1 14.9 71 3.2 WSW 20 32 11 17 1013.0 1012.4 5.4
 
Date/Time
EDT
Temp
°C
App
Temp
°C
Dew
Point
Rel
Hum
%
Delta-T
°C
Wind Press
QNH
hPa
Press
MSL
hPa
Rain
since 9 am
mm
Dir
 
Spd
km/h
Gust
km/h
Spd
kts
Gust
kts
24/11:30pm 20.5 20.2 16.5 78 2.4 WSW 13 26 7 14 1012.4 1011.8 5.4
24/11:00pm 20.2 20.6 17.2 83 1.8 WSW 11 17 6 9 1011.7 1011.2 5.4
24/10:30pm 20.2 20.6 17.2 83 1.8 W 11 17 6 9 1011.5 1011.0 5.4
24/10:00pm 20.4 19.7 16.4 78 2.4 W 15 20 8 11 1011.1 1010.6 5.4
24/09:30pm 20.7 19.5 16.1 75 2.8 W 17 28 9 15 1010.7 1010.2 5.4
24/09:07pm 20.2 18.0 16.8 81 2.1 W 24 35 13 19 1010.8 1010.3 5.4
24/09:00pm 20.2 19.0 17.0 82 2.0 N 19 24 10 13 1008.7 1008.2 5.4
24/08:30pm 20.4 18.2 16.8 80 2.2 WNW 24 32 13 17 1010.1 1009.6 5.2
24/08:00pm 20.2 16.4 17.2 83 1.8 WSW 33 48 18 26 1010.0 1009.5 5.2
24/07:30pm 24.3 19.7 16.0 60 5.1 W 35 65 19 35 1009.8 1009.3 1.8
24/07:29pm 26.0 22.3 16.0 54 6.2 W 30 50 16 27 1009.6 1009.1 1.8
24/07:00pm 27.3 26.0 17.2 54 6.4 N 20 26 11 14 1007.5 1006.9 1.8
24/06:30pm 28.2 26.0 16.8 50 7.2 N 24 30 13 16 1006.8 1006.2 1.8
24/06:00pm 28.4 26.1 16.7 49 7.4 N 24 33 13 18 1006.7 1006.1 1.8
24/05:30pm 27.3 26.0 17.2 54 6.4 N 20 24 11 13 1006.7 1006.1 1.8
24/05:00pm 26.6 25.3 18.2 60 5.4 NNE 22 30 12 16 1006.9 1006.3 1.8
24/04:30pm 25.8 24.1 18.0 62 4.9 NE 24 32 13 17 1007.0 1006.4 1.8
24/04:00pm 26.1 25.2 19.0 65 4.6 NE 22 30 12 16 1008.1 1007.6 1.8
24/03:30pm 24.8 22.7 18.0 66 4.3 NE 26 33 14 18 1008.9 1008.4 1.8
24/03:00pm 24.5 22.4 18.0 67 4.1 NNE 26 33 14 18 1009.9 1009.4 1.8
24/02:30pm 23.1 22.4 18.6 76 2.9 NE 20 26 11 14 1009.9 1009.4 1.8
24/02:00pm 22.6 22.1 19.2 81 2.2 ENE 20 26 11 14 1009.5 1009.0 1.8
24/01:30pm 22.4 22.1 19.6 84 1.8 E 20 24 11 13 1010.0 1009.5 1.8
24/01:28pm 22.3 21.9 19.3 83 1.9 E 20 24 11 13 1010.1 1009.6 1.8
24/01:00pm 21.9 24.4 19.1 84 1.8 SE 4 9 2 5 1012.1 1011.6 1.8
24/12:30pm 21.6 22.8 19.0 85 1.7 SSW 11 15 6 8 1012.9 1012.3 1.6
24/12:00pm 21.8 23.1 19.2 85 1.7 SW 11 17 6 9 1013.2 1012.6 1.4
24/11:30am 22.2 23.7 18.8 81 2.2 SW 9 15 5 8 1013.6 1013.0 1.2
24/11:00am 22.5 22.8 17.8 75 2.9 WSW 13 24 7 13 1014.1 1013.6 1.0
24/10:30am 23.3 24.7 18.6 75 3.0 SW 9 17 5 9 1012.9 1012.3 0.4

Other Formats:

Comma delimited format used in spreadsheet applications
http://www.bom.gov.au/fwo/IDN60801/IDN60801.95706.axf

JavaScript Object Notation format (JSON) in row-major order
http://www.bom.gov.au/fwo/IDN60801/IDN60801.95706.json